Terminal Aerodrome Forecast
Issued by NWS

Home | Current Version | Previous Version | Text Only | Print | Product List | Glossary On
Versions: 1 2 3 4 5 6 7 8 9 10 11 12 13 14 15 16
000
FTUS44 KCRP 212331
TAFALI
TAF
KALI 212331Z 2200/2224 13015G22KT P6SM SKC
     FM220200 15009KT P6SM FEW015 SCT250
     FM221000 14005KT P6SM SCT015
      TEMPO 2211/2214 4SM BR BKN015
     FM221600 17012G18KT P6SM FEW035 SCT250
     FM222100 14016G22KT P6SM FEW060=

USA.gov is the U.S. government's official web portal to all federal, state and local government web resources and services.